Time;durP1;ratioP1;P1;durP2;ratioP2;P2;SDS_P1;SDS_P2;PMS_P1;PMS_P2;Temp;Humidity;BMP_temperature;BMP_pressure;BME280_temperature;BME280_humidity;BME280_pressure;Samples;Min_cycle;Max_cycle;Signal;HPM_P1;HPM_P2
2023/03/29 00:00:13;;;;;;;4.82;1.80;;;;;;;4.38;100.00;101570.69;4896015;29;20112;-90
2023/03/29 00:02:39;;;;;;;3.83;1.90;;;;;;;4.37;100.00;101567.22;4895186;29;20044;-90
2023/03/29 00:05:06;;;;;;;2.85;1.80;;;;;;;4.39;100.00;101569.66;4898069;29;20176;-90
2023/03/29 00:07:32;;;;;;;5.63;2.28;;;;;;;4.43;100.00;101570.06;4898329;29;20021;-90
2023/03/29 00:09:58;;;;;;;5.00;2.00;;;;;;;4.44;100.00;101569.91;4899703;29;20043;-90
2023/03/29 00:12:24;;;;;;;5.28;2.05;;;;;;;4.36;100.00;101549.66;4899871;29;20036;-90
2023/03/29 00:14:49;;;;;;;4.00;1.73;;;;;;;4.44;100.00;101566.41;4899564;29;20032;-90
2023/03/29 00:17:15;;;;;;;5.07;2.20;;;;;;;4.47;100.00;101556.22;4898455;29;20111;-90
2023/03/29 00:19:45;;;;;;;4.03;2.23;;;;;;;4.50;100.00;101555.81;4898359;29;20028;-90
2023/03/29 00:22:11;;;;;;;3.83;1.75;;;;;;;4.51;100.00;101543.38;4899060;29;20037;-90
2023/03/29 00:24:36;;;;;;;6.03;2.00;;;;;;;4.45;100.00;101531.72;4899122;29;20036;-91
2023/03/29 00:27:01;;;;;;;3.33;1.87;;;;;;;4.51;100.00;101544.16;4898333;29;20536;-90
2023/03/29 00:29:27;;;;;;;4.77;2.03;;;;;;;4.52;100.00;101548.47;4881939;29;20025;-90
2023/03/29 00:31:53;;;;;;;2.60;1.80;;;;;;;4.53;100.00;101542.13;4899123;29;20084;-90
2023/03/29 00:34:19;;;;;;;2.83;1.73;;;;;;;4.57;100.00;101536.44;4899181;29;20033;-90
2023/03/29 00:36:45;;;;;;;4.13;2.03;;;;;;;4.57;100.00;101534.59;4898946;29;20039;-90
2023/03/29 00:39:10;;;;;;;3.53;1.77;;;;;;;4.59;100.00;101532.56;4902185;29;20029;-90
2023/03/29 00:41:36;;;;;;;4.57;1.90;;;;;;;4.57;100.00;101537.25;4904865;29;20041;-90
2023/03/29 00:44:03;;;;;;;3.27;2.03;;;;;;;4.61;100.00;101541.13;4910281;29;20037;-90
2023/03/29 00:46:29;;;;;;;4.10;2.20;;;;;;;4.61;100.00;101535.84;4917240;29;20111;-90
2023/03/29 00:49:04;;;;;;;5.22;2.28;;;;;;;4.66;100.00;101529.91;4916704;29;20024;-90
2023/03/29 00:51:33;;;;;;;2.92;1.52;;;;;;;4.67;100.00;101534.22;4921192;29;20042;-90
2023/03/29 00:54:02;;;;;;;4.13;1.85;;;;;;;4.63;100.00;101523.19;4916103;29;20097;-91
2023/03/29 00:56:33;;;;;;;3.70;1.67;;;;;;;4.69;100.00;101526.84;4917136;29;20040;-90
2023/03/29 00:59:21;;;;;;;4.93;2.00;;;;;;;4.70;100.00;101534.66;4907202;29;20029;-90
2023/03/29 01:01:52;;;;;;;6.07;1.70;;;;;;;4.73;100.00;101524.66;4900317;29;20285;-91
2023/03/29 01:04:24;;;;;;;5.80;1.92;;;;;;;4.74;100.00;101523.63;4921362;29;20029;-90
2023/03/29 01:06:57;;;;;;;4.03;1.80;;;;;;;4.75;100.00;101519.94;4898764;29;20562;-90
2023/03/29 01:09:25;;;;;;;2.33;1.80;;;;;;;4.78;100.00;101508.91;4898594;29;20089;-90
2023/03/29 01:11:55;;;;;;;5.18;1.90;;;;;;;4.79;100.00;101508.72;4899096;29;20027;-90
2023/03/29 01:14:39;;;;;;;6.50;2.15;;;;;;;4.79;100.00;101519.34;4898877;29;20055;-90
2023/03/29 01:17:05;;;;;;;5.72;1.98;;;;;;;4.74;100.00;101510.34;4898485;29;20032;-91
2023/03/29 01:19:37;;;;;;;4.27;1.80;;;;;;;4.74;100.00;101507.69;4898034;29;20036;-91
2023/03/29 01:22:27;;;;;;;2.78;1.67;;;;;;;4.78;100.00;101522.19;4897901;29;20028;-90
2023/03/29 01:25:06;;;;;;;4.30;2.10;;;;;;;4.78;100.00;101514.22;4881644;29;20033;-90
2023/03/29 01:27:54;;;;;;;3.53;2.30;;;;;;;4.78;100.00;101511.56;4897276;29;20501;-91
2023/03/29 01:30:30;;;;;;;4.53;1.85;;;;;;;4.79;100.00;101506.06;4896442;29;20044;-91
2023/03/29 01:33:05;;;;;;;7.13;2.15;;;;;;;4.81;100.00;101497.88;4899104;29;20032;-90
2023/03/29 01:35:43;;;;;;;2.80;1.80;;;;;;;4.82;100.00;101502.19;4898336;29;20065;-91
2023/03/29 01:38:48;;;;;;;5.90;2.10;;;;;;;4.83;100.00;101491.38;4898139;29;20029;-90
2023/03/29 01:41:14;;;;;;;5.23;1.87;;;;;;;4.85;100.00;101483.19;4878122;29;20301;-90
2023/03/29 01:44:07;;;;;;;5.03;2.13;;;;;;;4.87;100.00;101481.16;4881394;29;20035;-91
2023/03/29 01:46:46;;;;;;;4.68;2.42;;;;;;;4.87;100.00;101475.84;4879014;29;20044;-91
2023/03/29 01:49:31;;;;;;;4.03;2.25;;;;;;;4.88;100.00;101472.16;4880909;29;20060;-90
2023/03/29 01:52:13;;;;;;;4.15;1.95;;;;;;;4.87;100.00;101467.88;4898093;29;20032;-90
2023/03/29 01:54:53;;;;;;;3.03;1.67;;;;;;;4.81;100.00;101463.34;4896227;29;20104;-91
2023/03/29 01:57:21;;;;;;;4.07;1.80;;;;;;;4.88;100.00;101461.53;4897356;29;20296;-91
2023/03/29 01:59:48;;;;;;;7.65;2.60;;;;;;;4.83;100.00;101456.84;4897655;29;20020;-91
2023/03/29 02:02:17;;;;;;;4.00;1.60;;;;;;;4.83;100.00;101462.16;4897788;29;20032;-91
2023/03/29 02:04:49;;;;;;;3.60;2.15;;;;;;;4.85;100.00;101461.94;4897686;29;20088;-91
2023/03/29 02:07:16;;;;;;;3.83;2.10;;;;;;;4.85;100.00;101465.41;4896635;29;20024;-91
2023/03/29 02:09:42;;;;;;;3.25;2.10;;;;;;;4.88;100.00;101456.22;4897005;29;20025;-90
2023/03/29 02:12:09;;;;;;;5.97;2.15;;;;;;;4.87;100.00;101454.59;4897765;29;20051;-90
2023/03/29 02:14:35;;;;;;;3.80;2.20;;;;;;;4.85;100.00;101446.00;4897571;29;20036;-91
2023/03/29 02:17:20;;;;;;;3.45;2.15;;;;;;;4.86;100.00;101439.69;4896677;29;20037;-91
2023/03/29 02:19:49;;;;;;;6.43;2.00;;;;;;;4.82;100.00;101439.28;4899032;29;20044;-91
2023/03/29 02:22:22;;;;;;;3.88;2.00;;;;;;;4.81;100.00;101431.50;4909872;29;20036;-90
2023/03/29 02:24:49;;;;;;;2.53;1.60;;;;;;;4.83;100.00;101424.97;4920063;29;20036;-90
2023/03/29 02:27:15;;;;;;;7.22;2.30;;;;;;;4.80;100.00;101422.72;4898852;29;20036;-90
2023/03/29 02:29:41;;;;;;;5.87;1.87;;;;;;;4.89;100.00;101430.47;4898509;29;20029;-90
2023/03/29 02:32:14;;;;;;;6.05;1.98;;;;;;;4.89;100.00;101427.81;4919971;29;20042;-90
2023/03/29 02:34:48;;;;;;;5.97;2.50;;;;;;;4.92;100.00;101419.44;4898095;29;20097;-90
2023/03/29 02:37:17;;;;;;;7.13;1.90;;;;;;;4.94;100.00;101428.03;4896584;29;20348;-90
2023/03/29 02:39:46;;;;;;;5.53;2.03;;;;;;;4.93;100.00;101419.22;4895157;29;20036;-90
2023/03/29 02:42:15;;;;;;;6.18;2.00;;;;;;;4.98;100.00;101408.81;4897085;29;20092;-90
2023/03/29 02:44:44;;;;;;;2.28;1.75;;;;;;;5.00;100.00;101413.94;4896564;29;20060;-90
2023/03/29 02:47:19;;;;;;;6.82;1.77;;;;;;;5.02;100.00;101419.84;4879402;29;20033;-90
2023/03/29 02:49:45;;;;;;;6.18;1.90;;;;;;;5.04;100.00;101416.97;4896564;29;20048;-90
2023/03/29 02:52:18;;;;;;;6.63;1.97;;;;;;;5.03;100.00;101404.72;4896678;29;20029;-90
2023/03/29 02:54:47;;;;;;;6.57;1.77;;;;;;;5.04;100.00;101396.53;4896831;29;20024;-90
2023/03/29 02:57:12;;;;;;;3.15;1.52;;;;;;;5.06;100.00;101389.19;4894274;29;20036;-90
2023/03/29 02:59:39;;;;;;;5.10;1.80;;;;;;;5.09;100.00;101387.97;4895729;29;20041;-90
2023/03/29 03:02:05;;;;;;;6.07;1.67;;;;;;;5.12;100.00;101391.03;4897015;29;20553;-90
2023/03/29 03:04:34;;;;;;;4.60;1.70;;;;;;;5.15;100.00;101392.44;4896615;29;20165;-90
2023/03/29 03:07:00;;;;;;;5.05;1.85;;;;;;;5.15;100.00;101379.16;4895900;29;20129;-90
2023/03/29 03:09:25;;;;;;;4.10;1.60;;;;;;;5.19;100.00;101391.00;4879152;29;20179;-90
2023/03/29 03:11:50;;;;;;;5.60;1.50;;;;;;;5.20;100.00;101394.50;4897034;29;20033;-90
2023/03/29 03:14:17;;;;;;;3.13;1.40;;;;;;;5.21;100.00;101391.63;4894819;29;20033;-89
2023/03/29 03:16:46;;;;;;;4.45;1.75;;;;;;;5.24;100.00;101393.03;4878846;29;20032;-90
2023/03/29 03:19:12;;;;;;;5.57;1.70;;;;;;;5.27;100.00;101379.34;4896256;29;20038;-90
2023/03/29 03:21:37;;;;;;;3.83;1.80;;;;;;;5.29;100.00;101386.09;4896799;29;20116;-90
2023/03/29 03:24:03;;;;;;;4.83;1.30;;;;;;;5.24;100.00;101374.44;4896400;29;20032;-90
2023/03/29 03:26:31;;;;;;;3.88;1.70;;;;;;;5.31;100.00;101364.59;4894538;29;20094;-91
2023/03/29 03:28:57;;;;;;;3.07;1.43;;;;;;;5.28;100.00;101365.84;4878820;29;20055;-90
2023/03/29 03:31:22;;;;;;;3.75;1.25;;;;;;;5.35;100.00;101365.00;4901602;29;20029;-90
2023/03/29 03:33:47;;;;;;;3.67;1.60;;;;;;;5.33;100.00;101362.56;4911052;29;20025;-91
2023/03/29 03:36:13;;;;;;;3.60;1.33;;;;;;;5.31;100.00;101360.09;4909196;29;20366;-89
2023/03/29 03:38:38;;;;;;;3.20;1.73;;;;;;;5.29;100.00;101358.69;4912126;29;20035;-90
2023/03/29 03:41:08;;;;;;;6.60;1.53;;;;;;;5.37;100.00;101365.59;4905910;29;20020;-90
2023/03/29 03:43:33;;;;;;;2.70;1.52;;;;;;;5.36;100.00;101364.81;4907798;29;20529;-91
2023/03/29 03:45:59;;;;;;;6.83;1.37;;;;;;;5.38;100.00;101368.06;4900213;29;20356;-90
2023/03/29 03:48:24;;;;;;;4.82;1.50;;;;;;;5.34;100.00;101355.38;4900736;29;20041;-90
2023/03/29 03:50:51;;;;;;;5.10;1.60;;;;;;;5.43;100.00;101367.44;4908144;29;20019;-90
2023/03/29 03:53:17;;;;;;;6.18;1.77;;;;;;;5.39;100.00;101358.25;4918344;29;20035;-91
2023/03/29 03:55:47;;;;;;;3.75;1.17;;;;;;;5.45;100.00;101376.03;4900974;29;20555;-91
2023/03/29 03:58:12;;;;;;;3.58;1.65;;;;;;;5.42;100.00;101365.81;4908116;29;20032;-90
2023/03/29 04:00:37;;;;;;;4.93;1.40;;;;;;;5.46;100.00;101357.19;4914841;29;20040;-90
2023/03/29 04:03:04;;;;;;;4.27;1.63;;;;;;;5.44;100.00;101366.41;4900198;29;20024;-91
2023/03/29 04:05:30;;;;;;;3.63;1.70;;;;;;;5.40;100.00;101359.88;4899348;29;20056;-90
2023/03/29 04:07:55;;;;;;;3.50;1.50;;;;;;;5.44;100.00;101364.56;4899160;29;20073;-90
2023/03/29 04:10:21;;;;;;;5.30;1.98;;;;;;;5.44;100.00;101359.25;4898599;29;20082;-90
2023/03/29 04:12:46;;;;;;;3.00;1.70;;;;;;;5.40;100.00;101351.91;4899829;29;20043;-91
2023/03/29 04:15:12;;;;;;;4.60;2.20;;;;;;;5.44;100.00;101353.13;4899542;29;20044;-91
2023/03/29 04:17:37;;;;;;;5.60;2.10;;;;;;;5.42;100.00;101361.28;4898514;29;20328;-91
2023/03/29 04:20:10;;;;;;;4.80;1.80;;;;;;;5.41;100.00;101362.31;4881773;29;20423;-90
2023/03/29 04:22:36;;;;;;;5.28;2.00;;;;;;;5.43;100.00;101354.16;4884009;29;20062;-90
2023/03/29 04:25:01;;;;;;;3.93;1.70;;;;;;;5.41;100.00;101353.53;4899532;29;20037;-90
2023/03/29 04:27:26;;;;;;;5.35;1.50;;;;;;;5.44;100.00;101348.59;4897485;29;20416;-90
2023/03/29 04:29:52;;;;;;;4.13;1.67;;;;;;;5.44;100.00;101347.81;4898068;29;20120;-91
2023/03/29 04:32:17;;;;;;;4.27;1.53;;;;;;;5.40;100.00;101336.75;4900016;29;20063;-91
2023/03/29 04:34:42;;;;;;;5.17;1.77;;;;;;;5.46;100.00;101346.56;4882570;29;20045;-89
2023/03/29 04:37:09;;;;;;;3.67;2.37;;;;;;;5.50;100.00;101346.16;4899974;29;20036;-91
2023/03/29 04:39:38;;;;;;;3.75;1.98;;;;;;;5.52;100.00;101350.22;4888532;29;20036;-89
2023/03/29 04:42:04;;;;;;;9.77;2.05;;;;;;;5.51;100.00;101343.25;4899224;29;20029;-90
2023/03/29 04:44:32;;;;;;;4.78;1.90;;;;;;;5.48;100.00;101338.38;4899947;29;20062;-90
2023/03/29 04:46:57;;;;;;;5.40;2.20;;;;;;;5.54;100.00;101342.03;4899456;29;20035;-89
2023/03/29 04:49:22;;;;;;;6.17;2.00;;;;;;;5.57;100.00;101352.22;4898578;29;20032;-91
2023/03/29 04:51:48;;;;;;;5.30;2.07;;;;;;;5.54;100.00;101345.50;4898327;29;20029;-91
2023/03/29 04:54:13;;;;;;;6.83;2.40;;;;;;;5.59;100.00;101345.69;4897827;29;20033;-92
2023/03/29 04:56:38;;;;;;;4.32;1.98;;;;;;;5.57;100.00;101342.44;4898147;29;20028;-91
2023/03/29 04:59:06;;;;;;;4.93;2.30;;;;;;;5.60;100.00;101333.19;4898186;29;20130;-91
2023/03/29 05:01:31;;;;;;;5.33;2.07;;;;;;;5.58;100.00;101327.28;4899655;29;20069;-91
2023/03/29 05:03:56;;;;;;;4.83;2.23;;;;;;;5.55;100.00;101317.91;4898645;29;20308;-91
2023/03/29 05:06:23;;;;;;;7.72;2.30;;;;;;;5.62;100.00;101328.50;4898852;29;20033;-91
2023/03/29 05:08:50;;;;;;;5.30;2.20;;;;;;;5.62;100.00;101323.19;4897354;29;20584;-91
2023/03/29 05:11:15;;;;;;;5.53;1.98;;;;;;;5.60;100.00;101326.06;4902008;29;20064;-91
2023/03/29 05:13:41;;;;;;;6.77;2.50;;;;;;;5.63;100.00;101324.81;4899586;29;20072;-92
2023/03/29 05:16:07;;;;;;;4.15;2.22;;;;;;;5.64;100.00;101329.09;4899832;29;20153;-91
2023/03/29 05:18:33;;;;;;;5.65;2.50;;;;;;;5.64;100.00;101322.97;4904151;29;20031;-92
2023/03/29 05:20:58;;;;;;;7.93;2.60;;;;;;;5.62;100.00;101317.84;4916662;29;20060;-92
2023/03/29 05:23:24;;;;;;;4.63;2.37;;;;;;;5.64;100.00;101325.63;4901937;29;20351;-91
2023/03/29 05:25:52;;;;;;;6.65;2.20;;;;;;;5.64;100.00;101315.00;4906991;29;20056;-91
2023/03/29 05:28:18;;;;;;;6.73;2.60;;;;;;;5.72;100.00;101326.22;4901300;29;20442;-91
2023/03/29 05:30:43;;;;;;;6.90;2.60;;;;;;;5.70;100.00;101316.78;4902824;29;20092;-91
2023/03/29 05:33:09;;;;;;;5.63;2.25;;;;;;;5.80;100.00;101332.28;4890697;29;20045;-91
2023/03/29 05:35:34;;;;;;;7.80;2.30;;;;;;;5.81;100.00;101333.91;4878957;29;20481;-88
2023/03/29 05:38:00;;;;;;;5.85;2.47;;;;;;;5.76;100.00;101326.59;4891213;29;20043;-87
2023/03/29 05:40:27;;;;;;;7.47;2.40;;;;;;;5.89;100.00;101347.78;4880943;29;20186;-87
2023/03/29 05:42:52;;;;;;;4.53;2.17;;;;;;;5.94;100.00;101347.13;4896864;29;20405;-89
2023/03/29 05:45:18;;;;;;;5.72;2.60;;;;;;;5.91;100.00;101337.75;4895519;29;20036;-90
2023/03/29 05:47:44;;;;;;;4.13;2.20;;;;;;;6.00;100.00;101342.84;4897082;29;20397;-89
2023/03/29 05:50:10;;;;;;;5.95;2.15;;;;;;;6.05;100.00;101345.66;4880862;29;20037;-89
2023/03/29 05:52:36;;;;;;;7.45;2.38;;;;;;;6.11;100.00;101342.16;4896975;29;20440;-90
2023/03/29 05:55:05;;;;;;;5.97;2.38;;;;;;;6.12;100.00;101338.47;4897362;29;20025;-91
2023/03/29 05:57:31;;;;;;;3.57;2.00;;;;;;;6.12;100.00;101338.47;4895835;29;20035;-90
2023/03/29 05:59:56;;;;;;;10.27;2.75;;;;;;;6.18;100.00;101332.31;4898314;29;20028;-90
2023/03/29 06:02:24;;;;;;;7.30;2.20;;;;;;;6.29;100.00;101346.75;4909044;29;20028;-90
2023/03/29 06:04:50;;;;;;;6.80;2.55;;;;;;;6.34;100.00;101344.25;4902272;29;20128;-90
2023/03/29 06:07:16;;;;;;;6.88;2.83;;;;;;;6.40;100.00;101349.75;4898298;29;20072;-90
2023/03/29 06:09:41;;;;;;;3.88;2.63;;;;;;;6.41;100.00;101341.53;4897504;29;20032;-90
2023/03/29 06:12:07;;;;;;;5.20;2.33;;;;;;;6.50;100.00;101355.38;4896965;29;20057;-91
2023/03/29 06:14:36;;;;;;;7.20;2.60;;;;;;;6.56;100.00;101349.19;4900800;29;20080;-89
2023/03/29 06:17:01;;;;;;;7.03;2.27;;;;;;;6.61;100.00;101345.88;4896361;29;21057;-91
2023/03/29 06:19:26;;;;;;;6.55;2.40;;;;;;;6.66;100.00;101354.81;4905862;29;20025;-89
2023/03/29 06:21:53;;;;;;;8.77;2.70;;;;;;;6.72;100.00;101353.16;4902974;29;20546;-90
2023/03/29 06:24:19;;;;;;;3.90;2.00;;;;;;;6.76;100.00;101346.34;4925727;29;20020;-91
2023/03/29 06:26:46;;;;;;;6.72;2.42;;;;;;;6.79;100.00;101348.56;4910154;29;20044;-91
2023/03/29 06:29:12;;;;;;;6.35;2.65;;;;;;;6.86;100.00;101353.84;4901006;29;20028;-89
2023/03/29 06:31:39;;;;;;;6.00;2.50;;;;;;;6.95;100.00;101357.03;4901915;29;20088;-90
2023/03/29 06:34:05;;;;;;;5.28;2.42;;;;;;;6.95;100.00;101349.03;4903125;29;20145;-91
2023/03/29 06:36:33;;;;;;;7.30;2.63;;;;;;;6.97;100.00;101333.63;4904166;29;20047;-91
2023/03/29 06:38:58;;;;;;;7.35;2.83;;;;;;;7.11;100.00;101353.81;4900528;29;20052;-92
2023/03/29 06:41:25;;;;;;;5.47;2.40;;;;;;;7.15;100.00;101351.50;4897781;29;20075;-91
2023/03/29 06:43:50;;;;;;;8.13;2.90;;;;;;;7.11;100.00;101345.81;4889730;29;20033;-91
2023/03/29 06:46:15;;;;;;;5.35;2.50;;;;;;;7.17;100.00;101348.59;4882780;29;20089;-89
2023/03/29 06:48:42;;;;;;;7.63;2.60;;;;;;;7.25;100.00;101345.66;4904546;29;20111;-90
2023/03/29 06:51:07;;;;;;;6.40;2.70;;;;;;;7.33;100.00;101345.34;4911109;29;20028;-90
2023/03/29 06:53:33;;;;;;;6.07;3.00;;;;;;;7.36;100.00;101347.56;4893648;29;20027;-89
2023/03/29 06:55:59;;;;;;;4.13;2.67;;;;;;;7.38;100.00;101336.69;4912962;29;20496;-89
2023/03/29 06:58:25;;;;;;;4.10;2.50;;;;;;;7.46;100.00;101338.25;4894770;29;20036;-89
2023/03/29 07:00:50;;;;;;;11.40;2.93;;;;;;;7.63;100.00;101349.94;4887283;29;20045;-90
2023/03/29 07:03:22;;;;;;;7.50;2.57;;;;;;;7.75;100.00;101351.81;4895244;29;20393;-89
2023/03/29 07:05:50;;;;;;;10.23;2.85;;;;;;;7.88;100.00;101354.28;4899686;29;20020;-89
2023/03/29 07:08:17;;;;;;;7.78;2.90;;;;;;;8.01;100.00;101359.47;4913371;29;20176;-89
2023/03/29 07:10:46;;;;;;;6.78;2.60;;;;;;;8.08;100.00;101363.88;4886117;29;20035;-90
2023/03/29 07:13:12;;;;;;;6.75;2.88;;;;;;;8.16;100.00;101366.25;4895951;29;20021;-88
2023/03/29 07:15:42;;;;;;;6.35;2.75;;;;;;;8.16;100.00;101360.91;4901398;29;20488;-89
2023/03/29 07:18:09;;;;;;;6.97;2.67;;;;;;;8.12;100.00;101357.88;4885088;29;20033;-89
2023/03/29 07:20:37;;;;;;;5.47;2.57;;;;;;;8.13;100.00;101361.34;4897686;29;20308;-89
2023/03/29 07:23:05;;;;;;;6.45;2.88;;;;;;;8.11;100.00;101372.25;4885550;29;20173;-88
2023/03/29 07:25:31;;;;;;;5.32;2.95;;;;;;;8.11;100.00;101368.75;4902709;29;20053;-89
2023/03/29 07:27:56;;;;;;;8.43;2.97;;;;;;;8.15;100.00;101354.72;4901399;29;20408;-88
2023/03/29 07:30:26;;;;;;;5.33;2.50;;;;;;;8.28;100.00;101368.94;4891712;29;20036;-88
2023/03/29 07:32:53;;;;;;;5.82;2.83;;;;;;;8.33;100.00;101380.56;4902947;29;20051;-88
2023/03/29 07:35:18;;;;;;;6.82;2.60;;;;;;;8.32;100.00;101384.25;4902634;29;20031;-88
2023/03/29 07:37:47;;;;;;;6.83;2.80;;;;;;;8.31;100.00;101387.97;4909335;29;20480;-88
2023/03/29 07:40:22;;;;;;;8.23;2.90;;;;;;;8.34;100.00;101389.38;4906458;29;20029;-90
2023/03/29 07:42:50;;;;;;;7.25;2.83;;;;;;;8.40;100.00;101403.69;4904090;29;20020;-89
2023/03/29 07:45:16;;;;;;;6.30;3.00;;;;;;;8.29;100.00;101376.72;4885439;29;20556;-89
2023/03/29 07:47:42;;;;;;;7.85;2.90;;;;;;;8.44;100.00;101400.31;4904734;29;20060;-89
2023/03/29 07:50:09;;;;;;;6.63;3.10;;;;;;;8.44;100.00;101403.00;4886949;29;20104;-89
2023/03/29 07:52:37;;;;;;;7.40;3.03;;;;;;;8.44;100.00;101400.31;4886487;29;20052;-89
2023/03/29 07:55:05;;;;;;;6.40;3.10;;;;;;;8.43;100.00;101401.34;4900250;29;20037;-89
2023/03/29 07:57:31;;;;;;;7.80;3.10;;;;;;;8.43;100.00;101401.34;4902062;29;20288;-89
2023/03/29 07:59:58;;;;;;;5.10;2.90;;;;;;;8.47;100.00;101402.53;4901488;29;20031;-89
2023/03/29 08:02:23;;;;;;;5.80;3.22;;;;;;;8.48;100.00;101404.19;4903198;29;20040;-89
2023/03/29 08:04:49;;;;;;;7.37;3.30;;;;;;;8.48;100.00;101400.69;4902222;29;20016;-89
2023/03/29 08:07:17;;;;;;;10.00;3.20;;;;;;;8.44;100.00;101396.81;4883883;29;20051;-89
2023/03/29 08:09:43;;;;;;;7.55;3.35;;;;;;;8.32;100.00;101372.75;4885125;29;20036;-89
2023/03/29 08:12:09;;;;;;;7.75;3.50;;;;;;;8.54;100.00;101397.13;4902144;29;20043;-88
2023/03/29 08:14:35;;;;;;;10.40;3.50;;;;;;;8.55;100.00;101393.41;4915410;29;20023;-89
2023/03/29 08:17:00;;;;;;;10.73;3.58;;;;;;;8.73;100.00;101394.34;4896797;29;20040;-88
2023/03/29 08:19:26;;;;;;;10.23;3.30;;;;;;;8.75;100.00;101385.03;4901164;29;20064;-88
2023/03/29 08:21:52;;;;;;;6.03;3.43;;;;;;;8.87;100.00;101389.56;4916172;29;20025;-89
2023/03/29 08:24:18;;;;;;;10.15;3.50;;;;;;;8.92;100.00;101393.19;4911628;29;20582;-89
2023/03/29 08:26:43;;;;;;;9.43;3.80;;;;;;;9.02;100.00;101397.97;4898929;29;20098;-88
2023/03/29 08:29:08;;;;;;;7.50;3.57;;;;;;;9.12;100.00;101401.91;4898893;29;20060;-89
2023/03/29 08:31:34;;;;;;;7.70;3.73;;;;;;;9.27;100.00;101396.88;4898032;29;20039;-88
2023/03/29 08:34:00;;;;;;;4.57;3.40;;;;;;;9.47;100.00;101376.94;4898608;29;20518;-89
2023/03/29 08:36:26;;;;;;;11.53;4.00;;;;;;;9.70;100.00;101376.06;4898765;29;20111;-89
2023/03/29 08:38:52;;;;;;;8.95;3.83;;;;;;;9.82;100.00;101368.81;4898317;29;20033;-88
2023/03/29 08:41:26;;;;;;;8.50;3.85;;;;;;;9.82;100.00;101370.66;4898273;29;20035;-89
2023/03/29 08:44:03;;;;;;;11.23;4.00;;;;;;;9.84;100.00;101376.59;4898405;29;20024;-89
2023/03/29 08:46:50;;;;;;;13.23;4.23;;;;;;;9.88;100.00;101371.56;4898588;29;20334;-89
2023/03/29 08:49:18;;;;;;;9.73;3.40;;;;;;;9.93;100.00;101374.34;4898787;29;20567;-88
2023/03/29 08:51:55;;;;;;;9.30;3.97;;;;;;;9.99;100.00;101379.56;4898239;29;20085;-88
2023/03/29 08:54:25;;;;;;;7.75;3.63;;;;;;;10.13;100.00;101385.44;4899327;29;20488;-88
2023/03/29 08:56:56;;;;;;;7.05;3.72;;;;;;;9.98;100.00;101375.25;4900015;29;20037;-88
2023/03/29 08:59:32;;;;;;;8.55;3.72;;;;;;;9.99;100.00;101379.56;4903186;29;20029;-90
2023/03/29 09:02:31;;;;;;;7.82;3.58;;;;;;;10.01;100.00;101347.19;4914345;23;20043;-90
2023/03/29 09:05:04;;;;;;;12.13;4.00;;;;;;;10.28;100.00;101382.22;4919775;29;20032;-90
2023/03/29 09:07:30;;;;;;;7.63;4.03;;;;;;;10.40;100.00;101376.00;4920847;29;20036;-90
2023/03/29 09:09:55;;;;;;;8.63;3.83;;;;;;;10.60;100.00;101372.81;4920901;29;20315;-89
2023/03/29 09:12:55;;;;;;;13.40;4.10;;;;;;;10.81;100.00;101379.31;4927417;29;20029;-90
2023/03/29 09:15:32;;;;;;;6.95;3.88;;;;;;;10.92;100.00;101374.91;4925518;29;20059;-90
2023/03/29 09:18:24;;;;;;;7.38;3.67;;;;;;;10.95;100.00;101374.44;4908434;29;20035;-90
2023/03/29 09:21:15;;;;;;;9.23;3.90;;;;;;;10.93;100.00;101383.75;4920252;29;20465;-90
2023/03/29 09:24:08;;;;;;;7.90;3.70;;;;;;;10.89;100.00;101380.75;4916953;29;20201;-90
2023/03/29 09:26:54;;;;;;;6.85;3.92;;;;;;;10.93;100.00;101384.59;4916965;29;20032;-89
2023/03/29 09:29:45;;;;;;;8.30;3.70;;;;;;;10.88;100.00;101379.94;4916135;29;20104;-89
2023/03/29 09:32:25;;;;;;;7.75;3.90;;;;;;;10.70;100.00;101381.03;4918648;29;20056;-90
2023/03/29 09:35:07;;;;;;;5.67;3.40;;;;;;;10.56;100.00;101377.06;4918712;29;20036;-90
2023/03/29 09:37:37;;;;;;;8.60;3.40;;;;;;;10.45;100.00;101382.25;4918148;29;20334;-88
2023/03/29 09:40:09;;;;;;;7.63;3.60;;;;;;;10.36;100.00;101381.00;4916472;29;20511;-90
2023/03/29 09:42:36;;;;;;;6.30;3.67;;;;;;;10.38;100.00;101378.94;4918239;29;20088;-90
2023/03/29 09:45:07;;;;;;;10.43;4.05;;;;;;;10.51;100.00;101383.13;4903295;29;20120;-90
2023/03/29 09:47:51;;;;;;;9.32;4.38;;;;;;;10.65;100.00;101366.75;4917036;29;20424;-88
2023/03/29 09:50:25;;;;;;;10.35;4.47;;;;;;;10.67;100.00;101386.06;4914972;29;20048;-89
2023/03/29 09:52:51;;;;;;;8.75;4.18;;;;;;;10.52;100.00;101370.56;4898674;29;20119;-90
2023/03/29 09:55:29;;;;;;;10.17;4.57;;;;;;;10.40;100.00;101365.28;4897817;29;20059;-90
2023/03/29 09:58:10;;;;;;;12.48;4.40;;;;;;;10.50;100.00;101380.69;4898326;29;20048;-90
2023/03/29 10:00:36;;;;;;;8.43;4.55;;;;;;;10.36;100.00;101356.06;4897751;29;20033;-89
2023/03/29 10:03:01;;;;;;;7.53;4.07;;;;;;;10.57;100.00;101387.53;4897477;29;20035;-90
2023/03/29 10:05:31;;;;;;;9.13;4.37;;;;;;;10.51;100.00;101385.00;4897247;29;20032;-90
2023/03/29 10:07:59;;;;;;;9.10;4.20;;;;;;;10.54;100.00;101387.19;4880937;29;20047;-89
2023/03/29 10:10:34;;;;;;;8.48;4.30;;;;;;;10.53;100.00;101390.94;4897773;29;20024;-89
2023/03/29 10:13:15;;;;;;;10.20;4.35;;;;;;;10.63;100.00;101380.38;4903844;29;20040;-89
2023/03/29 10:15:40;;;;;;;9.25;4.72;;;;;;;10.65;100.00;101356.81;4916175;29;20031;-89
2023/03/29 10:18:12;;;;;;;8.13;4.90;;;;;;;10.86;100.00;101378.56;4915638;29;20028;-89
2023/03/29 10:20:39;;;;;;;9.73;4.68;;;;;;;11.07;100.00;101382.34;4914667;29;20031;-89
2023/03/29 10:23:06;;;;;;;8.32;4.40;;;;;;;11.24;100.00;101373.44;4896690;29;20025;-89
2023/03/29 10:25:35;;;;;;;8.75;4.22;;;;;;;11.24;100.00;101374.25;4895906;29;20473;-89
2023/03/29 10:28:14;;;;;;;8.97;4.20;;;;;;;11.65;100.00;101372.06;4896522;29;20024;-89
2023/03/29 10:30:41;;;;;;;6.43;3.93;;;;;;;11.62;100.00;101359.16;4896329;29;20277;-89
2023/03/29 10:33:17;;;;;;;6.00;3.83;;;;;;;11.50;100.00;101359.28;4896471;29;20024;-89
2023/03/29 10:35:45;;;;;;;9.50;3.95;;;;;;;11.62;100.00;101353.78;4896726;29;20040;-90
2023/03/29 10:38:13;;;;;;;8.75;4.72;;;;;;;12.02;100.00;101342.94;4895980;29;20503;-89
2023/03/29 10:40:45;;;;;;;8.88;4.63;;;;;;;12.53;100.00;101348.72;4907970;29;20032;-89
2023/03/29 10:43:23;;;;;;;7.80;4.03;;;;;;;12.91;100.00;101350.56;4915099;29;20051;-89
2023/03/29 10:46:06;;;;;;;9.20;4.50;;;;;;;13.32;100.00;101358.84;4914984;29;20463;-89
2023/03/29 10:48:34;;;;;;;6.93;4.00;;;;;;;13.58;99.04;101358.94;4913750;29;20035;-89
2023/03/29 10:51:01;;;;;;;7.80;3.50;;;;;;;13.67;97.35;101348.44;4915232;29;20076;-89
2023/03/29 10:53:30;;;;;;;9.57;4.03;;;;;;;13.50;95.95;101329.84;4914537;29;20029;-89
2023/03/29 10:56:17;;;;;;;10.45;4.72;;;;;;;13.43;96.06;101335.47;4899083;29;20032;-89
2023/03/29 10:58:42;;;;;;;6.85;4.20;;;;;;;13.52;96.86;101333.06;4914667;29;20472;-89
2023/03/29 11:01:19;;;;;;;6.67;4.53;;;;;;;13.73;95.27;101307.78;4914915;29;20031;-89
2023/03/29 11:03:52;;;;;;;4.65;3.95;;;;;;;14.11;94.57;101307.56;4897486;29;20043;-89
2023/03/29 11:06:32;;;;;;;6.90;3.83;;;;;;;14.45;94.17;101315.09;4898329;29;20111;-89
2023/03/29 11:08:59;;;;;;;7.22;3.80;;;;;;;14.79;91.14;101319.09;4911787;29;20053;-89
2023/03/29 11:11:53;;;;;;;8.75;4.00;;;;;;;15.21;92.08;101306.25;4903112;29;20041;-89
2023/03/29 11:14:48;;;;;;;8.53;3.50;;;;;;;14.98;88.17;101303.91;4898923;29;20042;-89
2023/03/29 11:17:34;;;;;;;7.97;3.80;;;;;;;15.13;88.29;101315.75;4897600;29;20781;-89
2023/03/29 11:20:23;;;;;;;6.07;3.90;;;;;;;15.52;88.61;101297.97;4918150;29;20116;-89
2023/03/29 11:22:54;;;;;;;5.65;3.22;;;;;;;15.74;84.73;101292.97;4926611;29;20028;-90
2023/03/29 11:25:29;;;;;;;8.48;3.50;;;;;;;15.38;82.67;101281.56;4927306;29;20032;-89
2023/03/29 11:28:13;;;;;;;4.57;3.45;;;;;;;15.42;83.72;101298.84;4925397;29;20024;-88
2023/03/29 11:30:56;;;;;;;8.65;4.15;;;;;;;15.40;81.85;101306.41;4900772;29;20039;-89
2023/03/29 11:33:28;;;;;;;5.70;3.70;;;;;;;15.39;85.16;101288.59;4914715;29;20036;-89
2023/03/29 11:36:15;;;;;;;8.40;3.97;;;;;;;15.78;82.85;101308.63;4914151;29;20825;-89